Time;durP1;ratioP1;P1;durP2;ratioP2;P2;SDS_P1;SDS_P2;PMS_P1;PMS_P2;Temp;Humidity;BMP_temperature;BMP_pressure;BME280_temperature;BME280_humidity;BME280_pressure;Samples;Min_cycle;Max_cycle;Signal;HPM_P1;HPM_P2
2021/12/21 00:01:07;;;;;;;;;29.67;25.33;;;;;4.82;60.95;102276.75;6242373;22;45301;-72
2021/12/21 00:03:33;;;;;;;;;22.00;20.67;;;;;4.51;61.46;102249.63;6215223;22;45609;-72
2021/12/21 00:05:58;;;;;;;;;31.00;23.67;;;;;4.38;61.80;102246.94;6242856;22;45361;-70
2021/12/21 00:08:24;;;;;;;;;25.00;20.33;;;;;4.48;62.26;102275.63;6242822;22;45272;-70
2021/12/21 00:10:49;;;;;;;;;22.33;20.33;;;;;4.41;62.51;102285.09;6242499;22;45264;-71
2021/12/21 00:16:05;;;;;;;;;22.00;15.00;;;;;4.16;63.17;102274.47;6242338;22;45225;-71
2021/12/21 00:18:38;;;;;;;;;24.33;21.67;;;;;4.24;63.55;102291.88;6243063;22;45234;-70
2021/12/21 00:23:40;;;;;;;;;30.00;24.67;;;;;4.13;64.00;102283.97;6242840;22;45288;-71
2021/12/21 00:26:14;;;;;;;;;24.67;24.67;;;;;4.12;64.13;102282.22;6242446;22;45333;-70
2021/12/21 00:28:55;;;;;;;;;27.33;23.00;;;;;4.12;64.18;102282.22;6243072;22;45188;-70
2021/12/21 00:31:22;;;;;;;;;22.33;20.33;;;;;4.03;64.46;102262.22;6241671;22;45276;-71
2021/12/21 00:33:48;;;;;;;;;31.00;28.00;;;;;3.99;64.08;102250.06;6242765;22;45267;-70
2021/12/21 00:36:17;;;;;;;;;25.75;24.25;;;;;4.03;64.46;102245.78;6242045;22;45996;-70
2021/12/21 00:38:43;;;;;;;;;29.75;23.00;;;;;4.14;64.16;102263.22;6242350;22;45384;-70
2021/12/21 00:41:09;;;;;;;;;32.75;22.75;;;;;3.99;64.20;102239.69;6242991;22;45329;-71
2021/12/21 00:43:34;;;;;;;;;40.75;25.00;;;;;4.26;64.46;102269.38;6242018;22;45316;-70
2021/12/21 00:46:00;;;;;;;;;24.33;17.67;;;;;4.02;64.87;102234.53;6242036;22;45946;-71
2021/12/21 00:48:30;;;;;;;;;22.25;16.75;;;;;4.10;64.58;102251.03;6242961;22;45178;-70
2021/12/21 00:51:03;;;;;;;;;27.67;24.33;;;;;3.76;64.50;102187.53;6242994;22;45337;-71
2021/12/21 00:53:29;;;;;;;;;20.00;18.33;;;;;4.24;64.52;102271.94;6242149;22;45371;-71
2021/12/21 00:55:55;;;;;;;;;24.33;22.33;;;;;4.22;64.81;102267.59;6242267;22;46050;-71
2021/12/21 00:58:21;;;;;;;;;26.25;24.25;;;;;4.09;65.49;102256.25;6242147;22;45248;-70
2021/12/21 01:00:47;;;;;;;;;23.75;23.25;;;;;3.74;65.40;102200.47;6216241;22;45363;-72
2021/12/21 01:03:14;;;;;;;;;39.25;29.50;;;;;4.15;65.56;102270.13;6215506;22;45367;-70
2021/12/21 01:05:50;;;;;;;;;22.00;19.00;;;;;4.11;65.57;102264.91;6245006;22;46597;-71
2021/12/21 01:08:21;;;;;;;;;23.75;19.50;;;;;4.07;65.71;102261.41;6244035;22;45313;-71
2021/12/21 01:11:09;;;;;;;;;27.00;23.00;;;;;3.87;65.70;102227.44;6243879;22;45376;-70
2021/12/21 01:21:33;;;;;;;;;22.00;19.00;;;;;3.92;66.36;102253.47;6242854;22;45280;-70
2021/12/21 01:32:35;;;;;;;;;27.00;20.50;;;;;3.75;66.74;102238.59;6148818;23;45456;-71
2021/12/21 01:35:14;;;;;;;;;27.50;25.25;;;;;3.74;67.15;102260.19;6149426;23;45388;-70
2021/12/21 01:38:03;;;;;;;;;39.33;23.00;;;;;3.66;67.41;102258.38;6150651;23;45985;-70
2021/12/21 01:43:30;;;;;;;;;19.25;17.25;;;;;3.39;68.21;102244.22;6150205;23;45229;-70
2021/12/21 01:51:24;;;;;;;;;30.75;26.50;;;;;3.32;68.91;102260.56;6149635;23;45332;-71
2021/12/21 01:53:50;;;;;;;;;25.00;19.50;;;;;3.28;68.70;102256.19;6148968;23;45366;-71
2021/12/21 01:56:16;;;;;;;;;29.25;27.25;;;;;3.22;69.04;102254.41;6149039;23;45625;-71
2021/12/21 01:58:43;;;;;;;;;24.75;19.75;;;;;3.18;69.18;102250.00;6147879;23;45411;-70
2021/12/21 02:01:11;;;;;;;;;29.75;22.00;;;;;3.13;69.44;102246.50;6147315;23;45529;-70
2021/12/21 02:03:37;;;;;;;;;24.75;23.00;;;;;3.09;69.16;102250.78;6216563;22;45494;-71
2021/12/21 02:06:04;;;;;;;;;33.75;22.25;;;;;2.75;69.82;102206.19;6242366;22;45456;-71
2021/12/21 02:08:29;;;;;;;;;24.50;24.00;;;;;3.00;69.76;102245.44;6241881;22;46477;-71
2021/12/21 02:11:00;;;;;;;;;23.00;23.00;;;;;2.96;69.98;102248.84;6242578;22;45117;-71
2021/12/21 02:13:30;;;;;;;;;30.25;24.25;;;;;2.88;69.92;102228.00;6242739;22;45276;-71
2021/12/21 02:15:55;;;;;;;;;30.00;25.25;;;;;2.85;70.27;102234.00;6241477;22;45441;-71
2021/12/21 02:18:40;;;;;;;;;34.50;28.75;;;;;2.80;70.36;102227.88;6241912;22;46118;-70
2021/12/21 02:23:44;;;;;;;;;27.75;23.00;;;;;2.73;70.92;102228.63;6242260;22;45155;-70
2021/12/21 02:29:11;;;;;;;;;29.75;23.75;;;;;2.59;71.36;102212.03;6241967;22;45433;-70
2021/12/21 02:31:38;;;;;;;;;27.50;23.25;;;;;2.63;71.54;102227.66;6241941;22;45288;-69
2021/12/21 02:34:05;;;;;;;;;36.50;30.25;;;;;2.59;71.41;102224.97;6242357;22;45411;-69
2021/12/21 02:36:31;;;;;;;;;27.00;25.00;;;;;2.56;71.66;102225.81;6242712;22;45415;-69
2021/12/21 02:38:57;;;;;;;;;33.75;26.75;;;;;2.21;71.47;102168.28;6242739;22;46010;-69
2021/12/21 02:41:22;;;;;;;;;24.75;24.00;;;;;2.48;71.89;102217.91;6244275;22;45256;-70
2021/12/21 02:43:48;;;;;;;;;33.25;30.25;;;;;2.45;72.10;102217.88;6244966;22;45415;-69
2021/12/21 02:46:13;;;;;;;;;27.25;26.00;;;;;2.35;72.45;102202.16;6245485;22;45261;-69
2021/12/21 02:48:39;;;;;;;;;38.00;28.00;;;;;2.41;72.48;102210.88;6240184;22;47808;-69
2021/12/21 02:51:05;;;;;;;;;28.00;22.50;;;;;2.15;72.40;102166.47;6242563;22;45223;-69
2021/12/21 02:53:30;;;;;;;;;35.50;28.75;;;;;2.39;72.87;102206.53;6242440;22;45272;-69
2021/12/21 02:55:56;;;;;;;;;32.75;27.75;;;;;2.36;72.55;102209.06;6215379;22;45193;-70
2021/12/21 02:58:21;;;;;;;;;26.25;22.75;;;;;2.16;73.19;102169.91;6241699;22;45406;-70
2021/12/21 03:00:47;;;;;;;;;25.50;18.25;;;;;2.31;73.00;102192.59;6241594;22;45254;-69
2021/12/21 03:03:14;;;;;;;;;23.25;21.75;;;;;2.27;72.93;102202.03;6242776;22;45351;-71
2021/12/21 03:05:53;;;;;;;;;26.75;21.75;;;;;2.26;73.07;102200.31;6242583;22;45272;-69
2021/12/21 03:08:37;;;;;;;;;35.75;29.25;;;;;2.15;73.36;102186.28;6242000;22;45328;-69
2021/12/21 03:11:16;;;;;;;;;32.00;24.50;;;;;2.06;73.27;102180.13;6241292;22;45372;-69
2021/12/21 03:16:20;;;;;;;;;30.25;25.75;;;;;2.01;73.44;102186.09;6241557;22;45296;-70
2021/12/21 03:18:46;;;;;;;;;32.25;28.25;;;;;1.96;73.78;102179.94;6241502;22;45436;-72
2021/12/21 03:21:12;;;;;;;;;34.50;27.75;;;;;2.05;74.04;102200.81;6241940;22;45750;-71
2021/12/21 03:23:38;;;;;;;;;35.75;23.00;;;;;2.04;73.86;102193.88;6242388;22;45351;-71
2021/12/21 03:26:04;;;;;;;;;30.25;27.00;;;;;2.02;73.83;102208.53;6214269;22;45541;-70
2021/12/21 03:28:30;;;;;;;;;37.25;29.25;;;;;1.45;74.09;102106.59;6242225;22;46534;-72
2021/12/21 03:30:56;;;;;;;;;31.25;26.50;;;;;1.96;74.23;102198.06;6242322;22;45360;-71
2021/12/21 03:33:21;;;;;;;;;32.25;27.00;;;;;1.94;74.64;102198.03;6241997;22;45321;-71
2021/12/21 03:35:47;;;;;;;;;26.25;25.25;;;;;1.56;74.37;102135.25;6242868;22;45305;-71
2021/12/21 03:38:14;;;;;;;;;33.50;24.00;;;;;1.44;74.30;102121.28;6243961;22;45324;-70
2021/12/21 03:40:39;;;;;;;;;31.50;25.00;;;;;1.87;74.91;102196.19;6246584;22;45302;-70
2021/12/21 03:43:05;;;;;;;;;20.00;19.75;;;;;1.80;74.57;102186.59;6242454;22;45181;-70
2021/12/21 03:45:34;;;;;;;;;32.50;21.25;;;;;1.81;74.96;102184.03;6189405;22;45369;-70
2021/12/21 03:47:59;;;;;;;;;28.50;27.25;;;;;1.71;75.19;102180.38;6241855;22;46639;-71
2021/12/21 03:50:27;;;;;;;;;28.25;24.75;;;;;1.76;75.08;102185.66;6214124;22;45690;-70
2021/12/21 03:52:52;;;;;;;;;33.50;26.25;;;;;1.68;75.01;102179.47;6242038;22;45248;-70
2021/12/21 03:55:17;;;;;;;;;26.50;23.25;;;;;1.72;75.31;102189.00;6241685;22;45246;-70
2021/12/21 03:57:43;;;;;;;;;31.00;28.25;;;;;1.68;75.19;102189.81;6240996;22;45936;-70
2021/12/21 04:00:13;;;;;;;;;31.25;27.25;;;;;1.66;75.38;102184.59;6242004;22;45493;-70
2021/12/21 04:02:39;;;;;;;;;23.50;22.50;;;;;1.64;75.37;102186.28;6215139;22;45626;-70
2021/12/21 04:05:05;;;;;;;;;32.50;27.25;;;;;1.61;75.45;102183.63;6239343;22;45267;-72
2021/12/21 04:07:31;;;;;;;;;30.50;25.50;;;;;1.59;75.84;102185.34;6239678;22;46504;-69
2021/12/21 04:09:57;;;;;;;;;29.25;27.75;;;;;1.58;75.83;102181.03;6240916;22;45352;-70
2021/12/21 04:12:22;;;;;;;;;33.00;26.00;;;;;1.05;76.16;102098.09;6241946;22;45268;-70
2021/12/21 04:14:48;;;;;;;;;29.00;26.25;;;;;1.54;76.25;102188.69;6241693;22;45308;-70
2021/12/21 04:17:22;;;;;;;;;30.25;27.25;;;;;1.51;76.27;102182.63;6241575;22;45898;-69
2021/12/21 04:19:48;;;;;;;;;30.75;29.00;;;;;1.48;76.07;102182.53;6240620;22;45267;-69
2021/12/21 04:22:14;;;;;;;;;25.25;21.75;;;;;1.46;76.37;102175.63;6242282;22;45316;-69
2021/12/21 04:24:39;;;;;;;;;36.75;28.25;;;;;1.32;76.43;102165.88;6215291;22;46115;-70
2021/12/21 04:27:06;;;;;;;;;30.50;27.25;;;;;1.40;76.57;102178.06;6215462;22;48224;-70
2021/12/21 04:29:32;;;;;;;;;22.25;19.25;;;;;1.36;76.84;102182.31;6244074;22;45341;-69
2021/12/21 04:31:57;;;;;;;;;29.25;27.00;;;;;1.35;77.05;102169.34;6243023;22;45213;-69
2021/12/21 04:34:22;;;;;;;;;38.50;29.50;;;;;1.22;77.24;102158.75;6215108;22;45754;-69
2021/12/21 04:36:48;;;;;;;;;34.50;26.50;;;;;1.30;77.27;102171.88;6242930;22;45371;-70
2021/12/21 04:39:56;;;;;;;;;30.50;27.00;;;;;1.29;77.58;102173.56;6243152;22;45384;-70
2021/12/21 04:42:06;;;;;;;;;26.25;26.00;;;;;0.93;77.37;102122.00;6238071;22;45463;-70
2021/12/21 04:44:32;;;;;;;;;33.25;27.50;;;;;1.23;77.42;102170.00;6242896;22;45251;-70
2021/12/21 04:46:57;;;;;;;;;34.50;29.00;;;;;1.16;77.51;102157.78;6243072;22;45908;-70
2021/12/21 04:49:23;;;;;;;;;35.75;29.50;;;;;1.17;77.69;102168.13;6242588;22;45297;-69
2021/12/21 04:51:48;;;;;;;;;31.00;24.75;;;;;1.08;77.62;102155.91;6215459;22;45417;-69
2021/12/21 04:54:14;;;;;;;;;30.25;26.50;;;;;0.94;77.88;102131.47;6240950;22;45511;-70
2021/12/21 04:56:40;;;;;;;;;31.75;30.50;;;;;1.07;78.02;102158.47;6242812;22;45234;-69
2021/12/21 04:59:06;;;;;;;;;37.50;30.50;;;;;0.99;77.90;102140.22;6242028;22;45362;-70
2021/12/21 05:01:33;;;;;;;;;25.75;24.50;;;;;1.07;77.89;102161.94;6243027;22;45349;-70
2021/12/21 05:03:58;;;;;;;;;32.00;24.75;;;;;1.05;78.27;102154.97;6242800;22;45288;-71
2021/12/21 05:06:24;;;;;;;;;38.00;28.50;;;;;0.93;78.13;102147.84;6214954;22;46455;-70
2021/12/21 05:09:04;;;;;;;;;31.75;27.00;;;;;1.02;78.49;102165.25;6242161;22;45343;-71
2021/12/21 05:11:33;;;;;;;;;28.25;25.75;;;;;1.00;78.46;102166.94;6215509;22;45182;-70
2021/12/21 05:13:59;;;;;;;;;44.25;33.50;;;;;0.97;78.73;102164.28;6242826;22;45349;-70
2021/12/21 05:16:24;;;;;;;;;37.00;26.75;;;;;0.94;78.90;102163.41;6244221;22;45415;-70
2021/12/21 05:18:50;;;;;;;;;36.00;32.00;;;;;0.93;78.65;102158.19;6244097;22;45406;-70
2021/12/21 05:21:15;;;;;;;;;40.25;29.50;;;;;0.91;78.71;102160.72;6215553;22;45361;-70
2021/12/21 05:23:41;;;;;;;;;32.25;27.25;;;;;0.75;78.99;102131.13;6242689;22;45382;-71
2021/12/21 05:26:06;;;;;;;;;40.50;31.25;;;;;0.88;78.84;102158.06;6242552;22;45331;-70
2021/12/21 05:28:31;;;;;;;;;32.50;29.50;;;;;0.75;78.61;102146.63;6242896;22;45472;-70
2021/12/21 05:30:57;;;;;;;;;40.25;34.50;;;;;0.85;79.23;102157.13;6242980;22;45338;-70
2021/12/21 05:33:22;;;;;;;;;32.00;25.25;;;;;0.73;79.10;102147.44;6242103;22;45377;-70
2021/12/21 05:35:48;;;;;;;;;34.00;31.50;;;;;0.82;79.16;102165.72;6242668;22;45691;-71
2021/12/21 05:38:18;;;;;;;;;42.75;36.75;;;;;0.68;79.45;102141.28;6243280;22;45359;-71
2021/12/21 05:40:46;;;;;;;;;37.00;31.25;;;;;0.77;79.81;102163.88;6246711;22;45336;-71
2021/12/21 05:43:12;;;;;;;;;45.75;33.75;;;;;0.74;79.64;102165.53;6216788;22;45424;-70
2021/12/21 05:45:38;;;;;;;;;42.50;35.50;;;;;0.65;79.68;102157.59;6241941;22;45979;-70
2021/12/21 05:48:04;;;;;;;;;39.25;33.50;;;;;0.72;79.86;102172.38;6242639;22;45383;-70
2021/12/21 05:50:29;;;;;;;;;42.00;37.50;;;;;0.17;79.68;102084.22;6242101;22;45330;-70
2021/12/21 05:52:55;;;;;;;;;34.00;32.25;;;;;0.53;80.39;102157.31;6242441;22;45155;-69
2021/12/21 05:55:21;;;;;;;;;51.75;37.75;;;;;0.65;80.22;102178.25;6241243;22;45342;-70
2021/12/21 05:57:48;;;;;;;;;30.75;28.75;;;;;0.63;80.24;102181.66;6241798;22;45522;-70
2021/12/21 06:00:26;;;;;;;;;37.75;37.25;;;;;0.60;80.25;102179.84;6242369;22;45233;-70
2021/12/21 06:02:51;;;;;;;;;37.50;35.25;;;;;0.54;80.54;102177.16;6241581;22;45375;-71
2021/12/21 06:05:17;;;;;;;;;40.25;34.50;;;;;0.56;80.29;102181.50;6241823;22;45374;-72
2021/12/21 06:07:45;;;;;;;;;43.00;36.25;;;;;0.54;80.54;102190.94;6242393;22;45316;-71
2021/12/21 06:10:15;;;;;;;;;38.50;33.25;;;;;0.54;80.33;102192.66;6242040;22;45213;-71
2021/12/21 06:25:56;;;;;;;;;53.75;42.25;;;;;0.39;81.13;102200.88;6241929;22;45359;-73
2021/12/21 06:28:21;;;;;;;;;57.50;46.25;;;;;0.32;80.90;102184.41;6214669;22;45370;-72
2021/12/21 06:30:47;;;;;;;;;51.75;44.50;;;;;-0.15;81.14;102111.84;6242498;22;45311;-73
2021/12/21 06:33:14;;;;;;;;;61.25;48.25;;;;;-0.17;81.49;102105.78;6242303;22;45201;-74
2021/12/21 06:35:39;;;;;;;;;66.00;52.00;;;;;0.21;81.36;102175.50;6242112;22;45630;-73
2021/12/21 06:38:06;;;;;;;;;61.25;48.50;;;;;0.33;81.32;102193.88;6241584;22;45192;-73
2021/12/21 06:40:32;;;;;;;;;66.00;52.00;;;;;0.11;81.54;102165.81;6242601;22;45320;-74
2021/12/21 06:43:01;;;;;;;;;73.00;56.50;;;;;0.02;81.49;102158.72;6242250;22;45316;-72
2021/12/21 06:45:43;;;;;;;;;69.00;52.00;;;;;0.18;81.33;102185.78;6241159;22;46358;-71
2021/12/21 06:53:34;;;;;;;;;57.00;46.75;;;;;-0.33;81.92;102108.84;6242503;22;45375;-72
2021/12/21 06:55:59;;;;;;;;;37.25;37.00;;;;;0.23;81.72;102222.91;6216182;22;46380;-78
2021/12/21 06:58:25;;;;;;;;;63.00;46.75;;;;;0.12;81.82;102191.63;6243380;22;45215;-81
2021/12/21 07:00:52;;;;;;;;;52.50;43.75;;;;;0.21;81.90;102203.03;6215176;22;45321;-75
2021/12/21 07:03:19;;;;;;;;;48.50;42.25;;;;;0.20;81.93;102204.75;6242442;22;45300;-76
2021/12/21 07:05:46;;;;;;;;;53.75;46.25;;;;;-0.19;82.04;102141.00;6242071;22;45442;-75
2021/12/21 07:08:18;;;;;;;;;51.75;45.00;;;;;0.01;82.19;102177.59;6242339;22;45482;-75
2021/12/21 07:19:14;;;;;;;;;52.75;43.50;;;;;0.09;82.38;102201.00;6089021;23;45464;-76
2021/12/21 07:21:40;;;;;;;;;60.00;49.00;;;;;-0.07;82.36;102166.22;6089111;23;45533;-71
2021/12/21 07:24:06;;;;;;;;;57.75;45.75;;;;;0.07;82.69;102198.44;6089472;23;45293;-70
2021/12/21 07:26:32;;;;;;;;;56.25;45.00;;;;;0.06;82.47;102198.38;6089799;23;45947;-72
2021/12/21 07:28:57;;;;;;;;;55.50;44.00;;;;;0.07;82.75;102194.94;6089228;23;45373;-72
2021/12/21 07:31:23;;;;;;;;;49.00;42.75;;;;;-0.06;82.79;102171.41;6064544;23;45688;-72
2021/12/21 07:33:48;;;;;;;;;52.25;45.50;;;;;0.04;82.87;102202.63;6088950;23;45310;-72
2021/12/21 07:36:14;;;;;;;;;55.25;43.00;;;;;0.03;82.89;102199.16;6089094;23;46079;-72
2021/12/21 07:38:39;;;;;;;;;56.25;45.75;;;;;-0.05;82.65;102180.91;6089201;23;45398;-72
2021/12/21 07:41:05;;;;;;;;;49.00;43.25;;;;;-0.17;82.92;102169.41;6091962;23;45483;-72
2021/12/21 07:43:30;;;;;;;;;42.25;35.75;;;;;0.02;82.72;102204.28;6097686;23;45294;-74
2021/12/21 07:45:57;;;;;;;;;57.50;47.00;;;;;0.00;83.22;102196.53;6092020;23;45936;-73
2021/12/21 07:48:23;;;;;;;;;54.00;42.25;;;;;0.00;83.11;102199.09;6089796;23;45337;-73
2021/12/21 07:50:51;;;;;;;;;53.00;44.25;;;;;-0.01;82.60;102213.69;6143053;23;45374;-73
2021/12/21 07:53:18;;;;;;;;;56.75;45.00;;;;;0.01;83.23;102207.72;6177873;23;45406;-73
2021/12/21 07:55:43;;;;;;;;;62.50;48.25;;;;;-0.36;83.05;102150.00;6233279;22;45426;-72
2021/12/21 07:58:11;;;;;;;;;48.75;42.75;;;;;0.01;83.04;102207.72;6242668;22;45257;-74
2021/12/21 08:00:37;;;;;;;;;47.50;41.50;;;;;0.01;82.49;102212.88;6242498;22;45371;-73
2021/12/21 08:03:03;;;;;;;;;55.25;44.50;;;;;-0.12;82.77;102196.22;6242954;22;45359;-74
2021/12/21 08:05:32;;;;;;;;;62.00;46.25;;;;;-0.02;82.90;102206.81;6215462;22;47226;-74
2021/12/21 08:08:09;;;;;;;;;53.50;45.25;;;;;-0.13;82.37;102189.28;6214696;22;45369;-73
2021/12/21 08:10:51;;;;;;;;;49.25;41.00;;;;;-0.35;82.58;102151.78;6215820;22;45406;-75
2021/12/21 08:13:18;;;;;;;;;57.00;47.75;;;;;0.01;82.60;102213.75;6216716;22;45510;-74
2021/12/21 08:15:44;;;;;;;;;52.25;47.00;;;;;0.02;82.74;102206.84;6243066;22;45375;-72
2021/12/21 08:18:09;;;;;;;;;44.00;41.25;;;;;-0.13;82.87;102184.13;6243375;22;45613;-76
2021/12/21 08:20:35;;;;;;;;;49.75;42.00;;;;;-0.05;82.78;102198.13;6242578;22;45372;-74
2021/12/21 08:23:01;;;;;;;;;54.25;46.25;;;;;0.08;82.61;102215.63;6242041;22;45477;-74
2021/12/21 08:25:28;;;;;;;;;56.75;42.75;;;;;-0.64;82.46;102083.13;6243003;22;45398;-75
2021/12/21 08:27:54;;;;;;;;;54.25;46.00;;;;;-0.85;82.65;102047.38;6243437;22;45311;-75
2021/12/21 08:30:19;;;;;;;;;60.50;45.75;;;;;0.16;82.25;102213.25;6216057;22;45393;-75
2021/12/21 08:32:45;;;;;;;;;49.25;40.50;;;;;0.02;82.17;102188.78;6242761;22;45272;-74
2021/12/21 08:35:14;;;;;;;;;55.25;45.50;;;;;0.07;82.48;102198.44;6242718;22;46024;-74
2021/12/21 08:37:40;;;;;;;;;52.00;44.50;;;;;-0.20;82.51;102153.03;6242620;22;45308;-73
2021/12/21 08:40:08;;;;;;;;;55.50;43.50;;;;;-0.06;82.21;102175.72;6242268;22;45296;-75
2021/12/21 08:42:36;;;;;;;;;53.25;42.00;;;;;0.24;82.01;102222.06;6242962;22;45345;-76
2021/12/21 08:45:06;;;;;;;;;56.25;43.75;;;;;0.11;82.15;102194.22;6215161;22;45977;-78
2021/12/21 08:47:35;;;;;;;;;58.50;46.50;;;;;0.29;82.22;102219.59;6214521;22;45275;-77
2021/12/21 08:50:01;;;;;;;;;48.75;42.50;;;;;-0.08;82.01;102151.59;6243241;22;45314;-77
2021/12/21 08:52:26;;;;;;;;;48.25;44.25;;;;;0.33;82.10;102211.09;6243185;22;45360;-83
2021/12/21 08:54:51;;;;;;;;;44.50;42.00;;;;;0.35;81.84;102214.56;6243153;22;46118;-79
2021/12/21 08:57:17;;;;;;;;;57.25;46.00;;;;;0.38;81.83;102217.22;6242983;22;45371;-79
2021/12/21 08:59:43;;;;;;;;;56.50;46.00;;;;;0.20;81.69;102181.53;6215616;22;45287;-78
2021/12/21 09:02:09;;;;;;;;;50.75;42.75;;;;;0.12;81.36;102163.25;6243456;22;45227;-77
2021/12/21 09:04:35;;;;;;;;;64.75;49.25;;;;;0.17;81.57;102159.06;6243150;22;46335;-78
2021/12/21 09:07:03;;;;;;;;;51.75;42.50;;;;;-0.05;81.55;102121.56;6243919;22;45398;-78
2021/12/21 09:09:29;;;;;;;;;59.50;45.75;;;;;0.54;81.27;102219.34;6191805;22;45332;-78
2021/12/21 09:11:54;;;;;;;;;59.00;46.00;;;;;0.04;81.23;102126.09;6192390;22;45194;-77
2021/12/21 09:14:21;;;;;;;;;63.50;51.00;;;;;0.35;81.29;102184.44;6243347;22;45169;-76
2021/12/21 09:16:49;;;;;;;;;56.75;46.00;;;;;0.62;81.06;102235.00;6242620;22;45314;-77
2021/12/21 09:19:14;;;;;;;;;51.50;45.50;;;;;0.15;80.99;102152.16;6243191;22;45817;-75
2021/12/21 09:21:40;;;;;;;;;51.25;42.75;;;;;0.67;80.65;102241.16;6241967;22;45471;-76
2021/12/21 09:24:06;;;;;;;;;44.00;43.00;;;;;0.49;80.65;102207.16;6243475;22;46141;-77
2021/12/21 09:26:31;;;;;;;;;58.00;45.50;;;;;0.71;80.19;102243.00;6241918;22;45393;-75
2021/12/21 09:28:56;;;;;;;;;43.75;41.25;;;;;0.57;80.15;102215.97;6243246;22;45319;-77
2021/12/21 09:31:22;;;;;;;;;47.50;40.50;;;;;0.79;79.50;102244.88;6242903;22;45302;-77
2021/12/21 09:33:47;;;;;;;;;48.50;39.00;;;;;0.71;80.18;102221.44;6190312;22;47257;-77
2021/12/21 09:36:13;;;;;;;;;65.75;48.25;;;;;0.79;80.11;102225.06;6214026;22;45398;-77
2021/12/21 09:38:38;;;;;;;;;47.25;41.75;;;;;0.87;80.03;102232.97;6244002;22;45232;-79
2021/12/21 09:41:04;;;;;;;;;49.50;43.50;;;;;0.90;80.00;102233.06;6248346;22;45220;-76
2021/12/21 09:43:30;;;;;;;;;53.75;42.75;;;;;0.90;79.83;102235.63;6250282;22;46269;-76
2021/12/21 09:45:55;;;;;;;;;61.50;48.75;;;;;0.94;79.58;102232.28;6244609;22;45146;-76
2021/12/21 09:48:22;;;;;;;;;54.50;44.25;;;;;0.96;79.58;102240.97;6246441;22;45119;-76
2021/12/21 09:50:47;;;;;;;;;61.50;47.25;;;;;0.86;79.48;102218.34;6234679;22;45356;-77
2021/12/21 09:53:13;;;;;;;;;54.50;43.75;;;;;1.01;79.05;102241.91;6258732;22;45989;-77
2021/12/21 09:55:38;;;;;;;;;51.50;44.50;;;;;0.78;78.73;102205.22;6243084;22;45197;-75
2021/12/21 09:58:04;;;;;;;;;60.25;45.75;;;;;0.74;78.29;102193.94;6244630;22;45252;-77
2021/12/21 10:00:34;;;;;;;;;50.50;43.25;;;;;1.08;78.29;102242.91;6244792;22;45419;-77
2021/12/21 10:03:04;;;;;;;;;48.50;40.75;;;;;1.11;77.82;102238.69;6243682;22;46154;-76
2021/12/21 10:05:34;;;;;;;;;48.75;44.00;;;;;1.15;77.60;102244.78;6245152;22;45311;-76
2021/12/21 10:08:12;;;;;;;;;51.50;44.25;;;;;1.18;77.20;102239.69;6244562;22;45358;-75
2021/12/21 10:10:41;;;;;;;;;49.00;44.50;;;;;1.21;77.08;102247.53;6242784;22;45561;-77
2021/12/21 10:13:10;;;;;;;;;56.00;45.50;;;;;1.23;76.83;102243.25;6244519;22;46120;-78
2021/12/21 10:15:42;;;;;;;;;45.00;40.00;;;;;1.05;76.85;102209.25;6243549;22;45265;-75
2021/12/21 10:18:08;;;;;;;;;55.75;44.25;;;;;1.26;76.48;102242.44;6242937;22;45331;-77
2021/12/21 10:20:42;;;;;;;;;50.00;43.25;;;;;1.28;76.47;102243.34;6241440;22;45213;-76
2021/12/21 10:23:30;;;;;;;;;47.00;41.00;;;;;1.21;76.56;102225.94;6242336;22;45311;-77
2021/12/21 10:25:59;;;;;;;;;46.50;40.50;;;;;1.31;76.56;102233.06;6242639;22;45325;-77
2021/12/21 10:28:39;;;;;;;;;41.75;37.25;;;;;0.91;76.41;102152.97;6242473;22;45441;-78
2021/12/21 10:31:11;;;;;;;;;47.00;40.75;;;;;1.09;76.00;102180.06;6242796;22;45170;-85
2021/12/21 10:33:39;;;;;;;;;42.50;36.00;;;;;1.38;75.94;102232.34;6243116;22;45576;-78
2021/12/21 10:36:07;;;;;;;;;42.50;35.75;;;;;1.42;75.95;102228.09;6243206;22;45256;-80
2021/12/21 10:38:37;;;;;;;;;36.00;35.25;;;;;1.40;75.72;102222.03;6243312;22;45210;-87
2021/12/21 10:41:26;;;;;;;;;35.75;29.25;;;;;1.32;74.55;102196.03;6242598;22;45241;-77
2021/12/21 10:44:07;;;;;;;;;30.50;27.00;;;;;1.16;73.78;102158.66;6242349;22;46132;-78
2021/12/21 10:46:41;;;;;;;;;36.50;29.50;;;;;1.52;74.46;102217.97;6242766;22;45319;-76
2021/12/21 10:49:12;;;;;;;;;37.25;33.25;;;;;1.54;73.80;102215.41;6242731;22;45341;-77
2021/12/21 10:51:53;;;;;;;;;33.50;29.25;;;;;1.35;73.93;102180.59;6242632;22;45296;-77
2021/12/21 10:54:34;;;;;;;;;30.75;27.00;;;;;1.59;73.70;102207.75;6241812;22;45264;-77
2021/12/21 10:57:02;;;;;;;;;40.25;33.50;;;;;1.17;73.67;102146.59;6241702;22;45527;-79
2021/12/21 10:59:31;;;;;;;;;32.00;27.75;;;;;1.54;73.46;102199.91;6215155;22;45376;-79
2021/12/21 11:02:11;;;;;;;;;27.75;24.50;;;;;1.61;73.46;102206.06;6242639;22;45220;-75
2021/12/21 11:04:43;;;;;;;;;34.25;28.75;;;;;1.63;73.38;102205.22;6242677;22;45350;-80
2021/12/21 11:07:43;;;;;;;;;33.00;27.00;;;;;1.23;73.67;102131.22;6244855;22;45284;-81
2021/12/21 11:10:12;;;;;;;;;28.50;27.75;;;;;1.66;73.50;102207.03;6244839;22;45230;-78
2021/12/21 11:12:52;;;;;;;;;33.00;26.00;;;;;1.68;73.40;102208.78;6244365;22;45429;-80
2021/12/21 11:15:28;;;;;;;;;30.50;25.25;;;;;1.50;73.64;102165.34;6242974;22;45304;-80
2021/12/21 11:17:54;;;;;;;;;35.50;27.00;;;;;1.29;73.47;102121.84;6242550;22;45264;-80
2021/12/21 11:20:19;;;;;;;;;30.00;29.00;;;;;1.45;73.47;102140.22;6243873;22;45459;-78
2021/12/21 11:22:45;;;;;;;;;31.25;31.25;;;;;1.22;73.03;102094.13;6244280;22;45257;-77
2021/12/21 11:25:12;;;;;;;;;33.25;32.50;;;;;1.78;72.58;102186.56;6243814;22;45291;-77
2021/12/21 11:27:41;;;;;;;;;32.00;27.75;;;;;1.81;72.15;102186.63;6215934;22;46290;-79
2021/12/21 11:30:17;;;;;;;;;30.50;29.00;;;;;1.86;71.78;102184.09;6243664;22;45324;-81
2021/12/21 11:32:48;;;;;;;;;25.25;23.50;;;;;1.89;71.02;102178.97;6243303;22;45395;-80
2021/12/21 11:37:47;;;;;;;;;22.50;22.25;;;;;1.82;70.51;102148.66;6243080;22;45300;-76
2021/12/21 11:40:16;;;;;;;;;29.00;24.75;;;;;1.67;70.03;102121.66;6244931;22;45217;-76
2021/12/21 11:42:50;;;;;;;;;29.00;25.00;;;;;1.97;70.74;102167.03;6244646;22;45363;-77
2021/12/21 11:45:22;;;;;;;;;38.50;30.50;;;;;1.77;70.54;102134.75;6214239;22;47297;-77
2021/12/21 11:47:55;;;;;;;;;38.00;31.50;;;;;1.88;70.67;102147.06;6242839;22;45369;-77
2021/12/21 11:50:21;;;;;;;;;36.50;28.25;;;;;1.37;71.04;102056.44;6215778;22;45280;-78
2021/12/21 11:52:52;;;;;;;;;32.75;32.00;;;;;1.98;69.84;102161.00;6217690;22;45327;-77
2021/12/21 11:55:24;;;;;;;;;33.75;27.25;;;;;1.68;70.22;102102.69;6224145;22;46904;-77
2021/12/21 11:57:54;;;;;;;;;37.75;29.50;;;;;1.92;70.08;102135.03;6248637;22;45304;-74
2021/12/21 12:00:32;;;;;;;;;32.50;31.50;;;;;2.02;70.10;102155.00;6242936;22;45375;-77
2021/12/21 12:03:15;;;;;;;;;41.25;29.00;;;;;2.01;70.59;102148.13;6242355;22;45421;-74
2021/12/21 12:05:56;;;;;;;;;31.75;28.50;;;;;1.61;70.59;102074.13;6243001;22;46050;-77
2021/12/21 12:08:23;;;;;;;;;32.00;30.00;;;;;1.90;70.15;102116.00;6243216;22;45358;-75
2021/12/21 12:10:56;;;;;;;;;33.50;27.75;;;;;1.91;70.44;102109.97;6243744;22;45481;-75
2021/12/21 12:13:31;;;;;;;;;33.50;27.50;;;;;2.07;69.63;102130.06;6243353;22;45323;-73
2021/12/21 12:16:01;;;;;;;;;33.50;31.00;;;;;2.07;69.64;102124.91;6220687;22;45380;-78
2021/12/21 12:18:41;;;;;;;;;29.25;25.00;;;;;1.99;69.41;102123.94;6252393;22;45233;-78
2021/12/21 12:21:25;;;;;;;;;29.00;25.50;;;;;2.11;70.05;102133.59;6216959;22;45353;-79
2021/12/21 12:24:04;;;;;;;;;34.00;32.00;;;;;2.05;69.09;102116.25;6242600;22;45407;-78
2021/12/21 12:26:32;;;;;;;;;25.50;20.75;;;;;2.13;69.65;102118.06;6214807;22;47790;-78
2021/12/21 12:29:11;;;;;;;;;41.50;31.50;;;;;2.14;69.56;102114.66;6243009;22;45193;-79
2021/12/21 12:31:39;;;;;;;;;35.00;26.50;;;;;2.02;69.22;102094.63;6242671;22;45204;-77